Bixby, Oklahoma
Current Conditions -  °F | °C
As of 10:53 AM on Thursday 30 Oct 2014 (Local Time) from KRVS Reporting Station
Clear Clear  
Wind Chill: 19°   Ceiling: Unl
Heat Index: 19°   Visibility: 10mi
Dew Point:   Wind: 9mph
Humidity: 48%   Direction: 240°WSW
Pressure: 30.12"   Gusts: 22mph
Location:  35.94°N, 95.88°W
Report Text: KRVS 301553Z 24008G19KT 10SM CLR 19/08 A3012 RMK AO2 SLP207 T01890078
Loading
Personal Weather Stations






























Interactive Weather Map
Tropical Storm Tracking
New forecast layout! Learn more

10-Day Weather Forecast

Advertisements
Track Severe Weather on mobile